EGLC

London City Airport

London, United Kingdom
METAR EGLC 170620Z AUTO 30010KT 9999 SCT043 05/02 Q1005
Observed Flight Rules
Jan-17 @ 06:20 UTC (32 minutes ago) Visual Flight Rules
Wind Visibility Clouds
300° at 10 knots 10,000+ meters
  • Scattered at 4,300' AGL
Temperatures Readings
Current 5°C / 41°F
Dewpoint 2°C / 36°F
Humidity 81%
Altimeter 29.68" Hg
Pressure 1004.92 hPa
Elevation 5
METAR EGLC 170620Z AUTO 30010KT 9999 SCT043 05/02 Q1005
Observed Flight Rules
Jan-17 @ 06:20 UTC
(32 minutes ago)
VFR
Wind Visibility
300° at 10 knots 10,000+ meters
Clouds
  • Scattered at 4,300' AGL
Temperature Dewpoint
5°C / 41°F 2°C / 36°F
Humidity Altimeter Pressure
81% 29.68" Hg 1004.92 hPa